Terminal Aerodrome Forecast
Issued by NWS

Home | Current Version | Previous Version | Text Only | Print | Product List | Glossary On
Versions: 1 2 3 4 5 6 7 8 9 10 11 12 13 14 15 16 17 18 19 20 21 22 23 24 25 26
368
FTUS41 KCAR 221120
TAFFVE
TAF
KFVE 221120Z 2212/2312 14008KT P6SM BKN200
     FM221500 16007KT P6SM OVC050
     FM221900 18006KT 3SM -RA BR OVC015
     FM222100 36008KT 2SM -RASN BR OVC006
     FM230000 36012KT 3/4SM -SN BR OVC004
     FM230300 32014G22KT P6SM OVC020=

USA.gov is the U.S. government's official web portal to all federal, state and local government web resources and services.